sensor_id;sensor_type;location;lat;lon;timestamp;P1;durP1;ratioP1;P2;durP2;ratioP2
3755;SDS011;1893;52.526;13.360;2023-02-28T00:00:18;7.80;;;2.93;;
3755;SDS011;1893;52.526;13.360;2023-02-28T00:02:44;5.60;;;2.47;;
3755;SDS011;1893;52.526;13.360;2023-02-28T00:05:11;4.83;;;2.97;;
3755;SDS011;1893;52.526;13.360;2023-02-28T00:07:39;4.33;;;2.87;;
3755;SDS011;1893;52.526;13.360;2023-02-28T00:10:06;5.63;;;2.80;;
3755;SDS011;1893;52.526;13.360;2023-02-28T00:12:32;6.03;;;3.20;;
3755;SDS011;1893;52.526;13.360;2023-02-28T00:15:02;5.63;;;2.70;;
3755;SDS011;1893;52.526;13.360;2023-02-28T00:17:31;6.30;;;2.90;;
3755;SDS011;1893;52.526;13.360;2023-02-28T00:19:57;3.87;;;2.97;;
3755;SDS011;1893;52.526;13.360;2023-02-28T00:22:26;8.90;;;2.70;;
3755;SDS011;1893;52.526;13.360;2023-02-28T00:24:52;3.77;;;2.87;;
3755;SDS011;1893;52.526;13.360;2023-02-28T00:27:17;5.73;;;2.97;;
3755;SDS011;1893;52.526;13.360;2023-02-28T00:29:43;8.80;;;3.00;;
3755;SDS011;1893;52.526;13.360;2023-02-28T00:32:11;5.90;;;3.10;;
3755;SDS011;1893;52.526;13.360;2023-02-28T00:34:36;5.17;;;3.60;;
3755;SDS011;1893;52.526;13.360;2023-02-28T00:37:03;5.50;;;3.37;;
3755;SDS011;1893;52.526;13.360;2023-02-28T00:39:30;4.13;;;2.60;;
3755;SDS011;1893;52.526;13.360;2023-02-28T00:41:56;5.63;;;2.80;;
3755;SDS011;1893;52.526;13.360;2023-02-28T00:44:22;5.57;;;2.70;;
3755;SDS011;1893;52.526;13.360;2023-02-28T00:46:47;5.40;;;2.53;;
3755;SDS011;1893;52.526;13.360;2023-02-28T00:49:13;4.57;;;3.10;;
3755;SDS011;1893;52.526;13.360;2023-02-28T00:51:38;3.90;;;2.40;;
3755;SDS011;1893;52.526;13.360;2023-02-28T00:54:04;3.83;;;2.57;;
3755;SDS011;1893;52.526;13.360;2023-02-28T00:56:30;7.17;;;3.30;;
3755;SDS011;1893;52.526;13.360;2023-02-28T00:58:55;5.93;;;2.93;;
3755;SDS011;1893;52.526;13.360;2023-02-28T01:01:21;4.43;;;2.53;;
3755;SDS011;1893;52.526;13.360;2023-02-28T01:03:46;4.20;;;3.50;;
3755;SDS011;1893;52.526;13.360;2023-02-28T01:06:12;5.07;;;3.20;;
3755;SDS011;1893;52.526;13.360;2023-02-28T01:08:37;4.30;;;2.60;;
3755;SDS011;1893;52.526;13.360;2023-02-28T01:11:07;4.13;;;2.77;;
3755;SDS011;1893;52.526;13.360;2023-02-28T01:13:34;4.40;;;2.50;;
3755;SDS011;1893;52.526;13.360;2023-02-28T01:15:59;6.17;;;2.97;;
3755;SDS011;1893;52.526;13.360;2023-02-28T01:18:25;11.30;;;2.60;;
3755;SDS011;1893;52.526;13.360;2023-02-28T01:20:51;10.83;;;3.67;;
3755;SDS011;1893;52.526;13.360;2023-02-28T01:23:17;4.50;;;2.80;;
3755;SDS011;1893;52.526;13.360;2023-02-28T01:25:44;6.63;;;4.10;;
3755;SDS011;1893;52.526;13.360;2023-02-28T01:28:10;9.50;;;2.70;;
3755;SDS011;1893;52.526;13.360;2023-02-28T01:30:36;5.33;;;3.33;;
3755;SDS011;1893;52.526;13.360;2023-02-28T01:33:01;4.33;;;2.70;;
3755;SDS011;1893;52.526;13.360;2023-02-28T01:35:27;6.00;;;3.20;;
3755;SDS011;1893;52.526;13.360;2023-02-28T01:37:52;9.80;;;3.13;;
3755;SDS011;1893;52.526;13.360;2023-02-28T01:40:18;5.40;;;3.37;;
3755;SDS011;1893;52.526;13.360;2023-02-28T01:42:44;9.60;;;3.67;;
3755;SDS011;1893;52.526;13.360;2023-02-28T01:45:31;4.67;;;3.40;;
3755;SDS011;1893;52.526;13.360;2023-02-28T01:48:00;5.53;;;2.90;;
3755;SDS011;1893;52.526;13.360;2023-02-28T01:50:31;10.40;;;3.17;;
3755;SDS011;1893;52.526;13.360;2023-02-28T01:53:04;5.67;;;3.13;;
3755;SDS011;1893;52.526;13.360;2023-02-28T01:55:31;4.60;;;3.00;;
3755;SDS011;1893;52.526;13.360;2023-02-28T01:57:59;5.33;;;2.80;;
3755;SDS011;1893;52.526;13.360;2023-02-28T02:00:27;7.57;;;3.80;;
3755;SDS011;1893;52.526;13.360;2023-02-28T02:02:58;6.90;;;3.60;;
3755;SDS011;1893;52.526;13.360;2023-02-28T02:05:29;5.23;;;2.97;;
3755;SDS011;1893;52.526;13.360;2023-02-28T02:07:59;11.20;;;3.80;;
3755;SDS011;1893;52.526;13.360;2023-02-28T02:10:31;6.93;;;3.60;;
3755;SDS011;1893;52.526;13.360;2023-02-28T02:18:46;6.97;;;3.90;;
3755;SDS011;1893;52.526;13.360;2023-02-28T02:21:25;11.20;;;4.90;;
3755;SDS011;1893;52.526;13.360;2023-02-28T02:26:43;6.60;;;3.50;;
3755;SDS011;1893;52.526;13.360;2023-02-28T02:34:41;6.83;;;3.77;;
3755;SDS011;1893;52.526;13.360;2023-02-28T02:37:27;7.07;;;3.80;;
3755;SDS011;1893;52.526;13.360;2023-02-28T02:48:03;13.33;;;4.30;;
3755;SDS011;1893;52.526;13.360;2023-02-28T02:50:34;10.63;;;3.73;;
3755;SDS011;1893;52.526;13.360;2023-02-28T02:53:05;6.77;;;3.50;;
3755;SDS011;1893;52.526;13.360;2023-02-28T02:55:34;6.07;;;3.70;;
3755;SDS011;1893;52.526;13.360;2023-02-28T02:58:04;7.77;;;4.37;;
3755;SDS011;1893;52.526;13.360;2023-02-28T03:00:35;7.23;;;3.60;;
3755;SDS011;1893;52.526;13.360;2023-02-28T03:03:04;7.83;;;3.80;;
3755;SDS011;1893;52.526;13.360;2023-02-28T03:05:36;7.10;;;3.83;;
3755;SDS011;1893;52.526;13.360;2023-02-28T03:08:10;7.10;;;3.67;;
3755;SDS011;1893;52.526;13.360;2023-02-28T03:27:16;10.13;;;4.30;;
3755;SDS011;1893;52.526;13.360;2023-02-28T03:30:33;8.63;;;4.20;;
3755;SDS011;1893;52.526;13.360;2023-02-28T03:32:53;8.90;;;4.20;;
3755;SDS011;1893;52.526;13.360;2023-02-28T03:35:31;6.43;;;3.43;;
3755;SDS011;1893;52.526;13.360;2023-02-28T03:38:07;9.95;;;5.03;;
3755;SDS011;1893;52.526;13.360;2023-02-28T03:43:09;7.40;;;4.80;;
3755;SDS011;1893;52.526;13.360;2023-02-28T03:45:39;8.47;;;3.70;;
3755;SDS011;1893;52.526;13.360;2023-02-28T03:48:13;9.27;;;5.75;;
3755;SDS011;1893;52.526;13.360;2023-02-28T03:50:45;9.87;;;4.43;;
3755;SDS011;1893;52.526;13.360;2023-02-28T03:55:42;8.40;;;4.50;;
3755;SDS011;1893;52.526;13.360;2023-02-28T04:01:11;5.90;;;4.30;;
3755;SDS011;1893;52.526;13.360;2023-02-28T04:03:40;7.20;;;4.20;;
3755;SDS011;1893;52.526;13.360;2023-02-28T04:06:07;6.30;;;4.80;;
3755;SDS011;1893;52.526;13.360;2023-02-28T04:08:38;5.90;;;4.07;;
3755;SDS011;1893;52.526;13.360;2023-02-28T04:11:06;6.90;;;3.90;;
3755;SDS011;1893;52.526;13.360;2023-02-28T04:13:45;7.60;;;4.53;;
3755;SDS011;1893;52.526;13.360;2023-02-28T04:16:11;7.97;;;3.70;;
3755;SDS011;1893;52.526;13.360;2023-02-28T04:18:40;8.00;;;4.63;;
3755;SDS011;1893;52.526;13.360;2023-02-28T04:21:08;6.60;;;4.50;;
3755;SDS011;1893;52.526;13.360;2023-02-28T04:23:34;8.00;;;5.73;;
3755;SDS011;1893;52.526;13.360;2023-02-28T04:26:00;7.03;;;4.60;;
3755;SDS011;1893;52.526;13.360;2023-02-28T04:28:26;13.73;;;4.93;;
3755;SDS011;1893;52.526;13.360;2023-02-28T04:30:58;6.57;;;4.47;;
3755;SDS011;1893;52.526;13.360;2023-02-28T04:33:25;7.70;;;4.53;;
3755;SDS011;1893;52.526;13.360;2023-02-28T04:35:57;6.00;;;3.93;;
3755;SDS011;1893;52.526;13.360;2023-02-28T04:38:24;10.85;;;4.88;;
3755;SDS011;1893;52.526;13.360;2023-02-28T04:40:50;6.00;;;4.30;;
3755;SDS011;1893;52.526;13.360;2023-02-28T04:43:15;7.43;;;4.50;;
3755;SDS011;1893;52.526;13.360;2023-02-28T04:45:41;10.67;;;5.73;;
3755;SDS011;1893;52.526;13.360;2023-02-28T04:48:07;7.30;;;4.30;;
3755;SDS011;1893;52.526;13.360;2023-02-28T04:50:33;11.25;;;4.90;;
3755;SDS011;1893;52.526;13.360;2023-02-28T04:52:59;9.00;;;5.53;;
3755;SDS011;1893;52.526;13.360;2023-02-28T04:55:24;13.80;;;6.43;;
3755;SDS011;1893;52.526;13.360;2023-02-28T04:57:50;10.37;;;5.13;;
3755;SDS011;1893;52.526;13.360;2023-02-28T05:00:15;7.23;;;5.73;;
3755;SDS011;1893;52.526;13.360;2023-02-28T05:02:41;13.00;;;5.73;;
3755;SDS011;1893;52.526;13.360;2023-02-28T05:05:07;12.20;;;5.50;;
3755;SDS011;1893;52.526;13.360;2023-02-28T05:07:33;8.70;;;5.47;;
3755;SDS011;1893;52.526;13.360;2023-02-28T05:09:59;8.10;;;4.43;;
3755;SDS011;1893;52.526;13.360;2023-02-28T05:12:25;10.37;;;5.33;;
3755;SDS011;1893;52.526;13.360;2023-02-28T05:14:50;8.13;;;5.43;;
3755;SDS011;1893;52.526;13.360;2023-02-28T05:17:16;8.37;;;5.43;;
3755;SDS011;1893;52.526;13.360;2023-02-28T05:19:41;7.83;;;5.00;;
3755;SDS011;1893;52.526;13.360;2023-02-28T05:22:12;10.90;;;6.00;;
3755;SDS011;1893;52.526;13.360;2023-02-28T05:24:40;11.32;;;5.30;;
3755;SDS011;1893;52.526;13.360;2023-02-28T05:27:07;9.93;;;6.07;;
3755;SDS011;1893;52.526;13.360;2023-02-28T05:29:33;8.53;;;5.93;;
3755;SDS011;1893;52.526;13.360;2023-02-28T05:31:59;11.35;;;5.63;;
3755;SDS011;1893;52.526;13.360;2023-02-28T05:34:25;13.13;;;6.23;;
3755;SDS011;1893;52.526;13.360;2023-02-28T05:36:50;10.53;;;4.90;;
3755;SDS011;1893;52.526;13.360;2023-02-28T05:39:16;8.27;;;4.63;;
3755;SDS011;1893;52.526;13.360;2023-02-28T05:41:42;11.10;;;5.97;;
3755;SDS011;1893;52.526;13.360;2023-02-28T05:44:08;10.82;;;5.53;;
3755;SDS011;1893;52.526;13.360;2023-02-28T05:46:34;8.50;;;5.05;;
3755;SDS011;1893;52.526;13.360;2023-02-28T05:49:00;14.20;;;6.10;;
3755;SDS011;1893;52.526;13.360;2023-02-28T05:51:25;11.87;;;5.47;;
3755;SDS011;1893;52.526;13.360;2023-02-28T05:53:51;10.40;;;6.00;;
3755;SDS011;1893;52.526;13.360;2023-02-28T05:56:17;18.97;;;5.20;;
3755;SDS011;1893;52.526;13.360;2023-02-28T05:58:42;9.63;;;6.10;;
3755;SDS011;1893;52.526;13.360;2023-02-28T06:01:25;9.73;;;5.67;;
3755;SDS011;1893;52.526;13.360;2023-02-28T06:03:59;13.32;;;5.78;;
3755;SDS011;1893;52.526;13.360;2023-02-28T06:06:25;9.30;;;5.00;;
3755;SDS011;1893;52.526;13.360;2023-02-28T06:08:51;10.50;;;6.00;;
3755;SDS011;1893;52.526;13.360;2023-02-28T06:11:17;10.30;;;6.07;;
3755;SDS011;1893;52.526;13.360;2023-02-28T06:13:44;12.98;;;6.38;;
3755;SDS011;1893;52.526;13.360;2023-02-28T06:16:10;10.53;;;5.57;;
3755;SDS011;1893;52.526;13.360;2023-02-28T06:18:36;6.90;;;5.93;;
3755;SDS011;1893;52.526;13.360;2023-02-28T06:21:02;9.63;;;5.20;;
3755;SDS011;1893;52.526;13.360;2023-02-28T06:23:27;13.80;;;5.90;;
3755;SDS011;1893;52.526;13.360;2023-02-28T06:25:53;17.23;;;5.80;;
3755;SDS011;1893;52.526;13.360;2023-02-28T06:28:22;8.87;;;6.17;;
3755;SDS011;1893;52.526;13.360;2023-02-28T06:30:48;11.47;;;6.10;;
3755;SDS011;1893;52.526;13.360;2023-02-28T06:33:13;9.07;;;5.77;;
3755;SDS011;1893;52.526;13.360;2023-02-28T06:35:39;11.47;;;6.13;;
3755;SDS011;1893;52.526;13.360;2023-02-28T06:38:05;8.77;;;6.10;;
3755;SDS011;1893;52.526;13.360;2023-02-28T06:40:30;12.70;;;6.63;;
3755;SDS011;1893;52.526;13.360;2023-02-28T06:42:59;10.10;;;6.00;;
3755;SDS011;1893;52.526;13.360;2023-02-28T06:45:24;9.70;;;5.80;;
3755;SDS011;1893;52.526;13.360;2023-02-28T06:47:51;9.13;;;6.07;;
3755;SDS011;1893;52.526;13.360;2023-02-28T06:50:17;9.90;;;5.40;;
3755;SDS011;1893;52.526;13.360;2023-02-28T06:52:44;8.70;;;5.53;;
3755;SDS011;1893;52.526;13.360;2023-02-28T06:55:10;15.60;;;7.20;;
3755;SDS011;1893;52.526;13.360;2023-02-28T06:57:35;14.43;;;7.67;;
3755;SDS011;1893;52.526;13.360;2023-02-28T07:00:04;10.30;;;6.20;;
3755;SDS011;1893;52.526;13.360;2023-02-28T07:02:32;11.57;;;6.57;;
3755;SDS011;1893;52.526;13.360;2023-02-28T07:04:59;11.60;;;6.10;;
3755;SDS011;1893;52.526;13.360;2023-02-28T07:07:24;10.80;;;5.80;;
3755;SDS011;1893;52.526;13.360;2023-02-28T07:09:50;8.93;;;5.80;;
3755;SDS011;1893;52.526;13.360;2023-02-28T07:12:15;12.00;;;6.30;;
3755;SDS011;1893;52.526;13.360;2023-02-28T07:14:41;10.17;;;6.40;;
3755;SDS011;1893;52.526;13.360;2023-02-28T07:17:07;10.93;;;6.63;;
3755;SDS011;1893;52.526;13.360;2023-02-28T07:19:34;12.03;;;6.47;;
3755;SDS011;1893;52.526;13.360;2023-02-28T07:21:59;14.10;;;7.93;;
3755;SDS011;1893;52.526;13.360;2023-02-28T07:24:26;10.20;;;6.27;;
3755;SDS011;1893;52.526;13.360;2023-02-28T07:26:53;10.33;;;6.67;;
3755;SDS011;1893;52.526;13.360;2023-02-28T07:29:18;11.40;;;7.03;;
3755;SDS011;1893;52.526;13.360;2023-02-28T07:31:44;11.27;;;7.10;;
3755;SDS011;1893;52.526;13.360;2023-02-28T07:34:11;13.47;;;7.43;;
3755;SDS011;1893;52.526;13.360;2023-02-28T07:36:37;11.07;;;7.27;;
3755;SDS011;1893;52.526;13.360;2023-02-28T07:39:03;11.13;;;7.80;;
3755;SDS011;1893;52.526;13.360;2023-02-28T07:41:29;13.27;;;7.60;;
3755;SDS011;1893;52.526;13.360;2023-02-28T07:43:58;13.23;;;6.33;;
3755;SDS011;1893;52.526;13.360;2023-02-28T07:46:25;11.97;;;6.77;;
3755;SDS011;1893;52.526;13.360;2023-02-28T07:48:51;11.07;;;7.10;;
3755;SDS011;1893;52.526;13.360;2023-02-28T07:51:18;9.60;;;6.90;;
3755;SDS011;1893;52.526;13.360;2023-02-28T07:53:44;13.47;;;6.27;;
3755;SDS011;1893;52.526;13.360;2023-02-28T07:56:09;10.57;;;6.17;;
3755;SDS011;1893;52.526;13.360;2023-02-28T07:58:35;16.13;;;6.17;;
3755;SDS011;1893;52.526;13.360;2023-02-28T08:01:08;11.40;;;7.53;;
3755;SDS011;1893;52.526;13.360;2023-02-28T08:03:36;13.47;;;6.80;;
3755;SDS011;1893;52.526;13.360;2023-02-28T08:06:03;9.13;;;6.37;;
3755;SDS011;1893;52.526;13.360;2023-02-28T08:08:30;9.13;;;5.87;;
3755;SDS011;1893;52.526;13.360;2023-02-28T08:10:59;7.73;;;4.90;;
3755;SDS011;1893;52.526;13.360;2023-02-28T08:13:26;9.90;;;4.30;;
3755;SDS011;1893;52.526;13.360;2023-02-28T08:15:53;4.30;;;3.00;;
3755;SDS011;1893;52.526;13.360;2023-02-28T08:18:19;2.77;;;1.67;;
3755;SDS011;1893;52.526;13.360;2023-02-28T08:20:45;1.93;;;1.43;;
3755;SDS011;1893;52.526;13.360;2023-02-28T08:23:11;2.10;;;1.60;;
3755;SDS011;1893;52.526;13.360;2023-02-28T08:25:37;2.10;;;1.60;;
3755;SDS011;1893;52.526;13.360;2023-02-28T08:28:02;2.17;;;1.60;;
3755;SDS011;1893;52.526;13.360;2023-02-28T08:30:28;2.10;;;1.70;;
3755;SDS011;1893;52.526;13.360;2023-02-28T08:32:54;4.17;;;1.67;;
3755;SDS011;1893;52.526;13.360;2023-02-28T08:35:20;5.07;;;2.80;;
3755;SDS011;1893;52.526;13.360;2023-02-28T08:37:47;6.83;;;2.70;;
3755;SDS011;1893;52.526;13.360;2023-02-28T08:40:13;5.20;;;2.60;;
3755;SDS011;1893;52.526;13.360;2023-02-28T08:42:43;4.33;;;2.30;;
3755;SDS011;1893;52.526;13.360;2023-02-28T08:45:13;2.10;;;1.60;;
3755;SDS011;1893;52.526;13.360;2023-02-28T08:47:39;2.43;;;2.23;;
3755;SDS011;1893;52.526;13.360;2023-02-28T08:50:05;2.03;;;1.70;;
3755;SDS011;1893;52.526;13.360;2023-02-28T08:52:32;3.63;;;2.67;;
3755;SDS011;1893;52.526;13.360;2023-02-28T08:54:58;3.57;;;2.37;;
3755;SDS011;1893;52.526;13.360;2023-02-28T08:57:24;4.70;;;2.00;;
3755;SDS011;1893;52.526;13.360;2023-02-28T08:59:51;1.90;;;1.50;;
3755;SDS011;1893;52.526;13.360;2023-02-28T09:02:17;2.07;;;1.40;;
3755;SDS011;1893;52.526;13.360;2023-02-28T09:04:43;4.90;;;2.70;;
3755;SDS011;1893;52.526;13.360;2023-02-28T09:07:10;3.43;;;2.10;;
3755;SDS011;1893;52.526;13.360;2023-02-28T09:09:36;2.57;;;1.50;;
3755;SDS011;1893;52.526;13.360;2023-02-28T09:12:02;2.13;;;1.80;;
3755;SDS011;1893;52.526;13.360;2023-02-28T09:14:27;2.70;;;1.80;;
3755;SDS011;1893;52.526;13.360;2023-02-28T09:16:53;1.60;;;1.50;;
3755;SDS011;1893;52.526;13.360;2023-02-28T09:19:19;4.90;;;1.90;;
3755;SDS011;1893;52.526;13.360;2023-02-28T09:21:45;4.53;;;1.90;;
3755;SDS011;1893;52.526;13.360;2023-02-28T09:24:11;1.80;;;1.63;;
3755;SDS011;1893;52.526;13.360;2023-02-28T09:26:39;2.60;;;1.70;;
3755;SDS011;1893;52.526;13.360;2023-02-28T09:29:05;4.20;;;1.93;;
3755;SDS011;1893;52.526;13.360;2023-02-28T09:31:31;6.60;;;3.40;;
3755;SDS011;1893;52.526;13.360;2023-02-28T09:33:57;3.07;;;1.90;;
3755;SDS011;1893;52.526;13.360;2023-02-28T09:36:24;1.83;;;1.73;;
3755;SDS011;1893;52.526;13.360;2023-02-28T09:38:53;2.50;;;1.67;;
3755;SDS011;1893;52.526;13.360;2023-02-28T09:41:20;2.40;;;1.80;;
3755;SDS011;1893;52.526;13.360;2023-02-28T09:43:51;3.27;;;1.80;;
3755;SDS011;1893;52.526;13.360;2023-02-28T09:46:33;2.30;;;1.70;;
3755;SDS011;1893;52.526;13.360;2023-02-28T09:49:17;3.30;;;1.40;;
3755;SDS011;1893;52.526;13.360;2023-02-28T09:54:24;3.67;;;1.60;;
3755;SDS011;1893;52.526;13.360;2023-02-28T09:59:38;2.50;;;1.90;;
3755;SDS011;1893;52.526;13.360;2023-02-28T10:05:08;6.90;;;1.73;;
3755;SDS011;1893;52.526;13.360;2023-02-28T10:11:09;7.33;;;2.23;;
3755;SDS011;1893;52.526;13.360;2023-02-28T10:13:15;6.03;;;2.10;;
3755;SDS011;1893;52.526;13.360;2023-02-28T10:15:59;2.40;;;2.20;;
3755;SDS011;1893;52.526;13.360;2023-02-28T10:21:21;5.00;;;2.53;;
3755;SDS011;1893;52.526;13.360;2023-02-28T10:23:55;3.33;;;2.37;;
3755;SDS011;1893;52.526;13.360;2023-02-28T10:26:28;3.67;;;2.27;;
3755;SDS011;1893;52.526;13.360;2023-02-28T10:28:55;7.07;;;1.97;;
3755;SDS011;1893;52.526;13.360;2023-02-28T10:31:21;2.67;;;2.30;;
3755;SDS011;1893;52.526;13.360;2023-02-28T10:33:47;2.30;;;1.77;;
3755;SDS011;1893;52.526;13.360;2023-02-28T10:36:17;2.43;;;1.63;;
3755;SDS011;1893;52.526;13.360;2023-02-28T10:38:45;2.80;;;2.33;;
3755;SDS011;1893;52.526;13.360;2023-02-28T10:41:13;3.50;;;1.77;;
3755;SDS011;1893;52.526;13.360;2023-02-28T10:43:41;2.47;;;1.63;;
3755;SDS011;1893;52.526;13.360;2023-02-28T10:51:13;5.13;;;1.93;;
3755;SDS011;1893;52.526;13.360;2023-02-28T10:53:54;3.37;;;1.80;;
3755;SDS011;1893;52.526;13.360;2023-02-28T10:56:21;4.10;;;2.10;;
3755;SDS011;1893;52.526;13.360;2023-02-28T11:01:41;5.40;;;1.77;;
3755;SDS011;1893;52.526;13.360;2023-02-28T11:09:46;2.20;;;1.60;;
3755;SDS011;1893;52.526;13.360;2023-02-28T11:12:19;3.40;;;1.80;;
3755;SDS011;1893;52.526;13.360;2023-02-28T11:15:41;3.67;;;1.70;;
3755;SDS011;1893;52.526;13.360;2023-02-28T11:18:01;3.90;;;1.90;;
3755;SDS011;1893;52.526;13.360;2023-02-28T11:20:49;1.90;;;1.60;;
3755;SDS011;1893;52.526;13.360;2023-02-28T11:23:17;2.87;;;1.90;;
3755;SDS011;1893;52.526;13.360;2023-02-28T11:25:49;4.00;;;1.67;;
3755;SDS011;1893;52.526;13.360;2023-02-28T11:33:42;1.60;;;1.50;;
3755;SDS011;1893;52.526;13.360;2023-02-28T11:36:18;3.60;;;2.20;;
3755;SDS011;1893;52.526;13.360;2023-02-28T11:38:52;2.13;;;1.90;;
3755;SDS011;1893;52.526;13.360;2023-02-28T11:41:32;2.20;;;1.83;;
3755;SDS011;1893;52.526;13.360;2023-02-28T11:46:51;2.43;;;2.10;;
3755;SDS011;1893;52.526;13.360;2023-02-28T11:49:32;3.27;;;2.20;;
3755;SDS011;1893;52.526;13.360;2023-02-28T11:55:16;2.83;;;1.73;;
3755;SDS011;1893;52.526;13.360;2023-02-28T12:06:30;4.80;;;2.77;;
3755;SDS011;1893;52.526;13.360;2023-02-28T12:09:18;5.40;;;2.30;;
3755;SDS011;1893;52.526;13.360;2023-02-28T12:14:59;2.67;;;2.30;;
3755;SDS011;1893;52.526;13.360;2023-02-28T12:26:37;3.33;;;3.10;;
3755;SDS011;1893;52.526;13.360;2023-02-28T12:28:37;3.00;;;2.60;;
3755;SDS011;1893;52.526;13.360;2023-02-28T12:31:20;4.60;;;2.90;;
3755;SDS011;1893;52.526;13.360;2023-02-28T12:33:55;3.17;;;2.70;;
3755;SDS011;1893;52.526;13.360;2023-02-28T12:36:26;3.77;;;3.03;;
3755;SDS011;1893;52.526;13.360;2023-02-28T12:38:58;6.33;;;2.80;;
3755;SDS011;1893;52.526;13.360;2023-02-28T12:41:47;3.30;;;2.60;;
3755;SDS011;1893;52.526;13.360;2023-02-28T12:44:19;4.53;;;2.87;;
3755;SDS011;1893;52.526;13.360;2023-02-28T12:46:49;5.67;;;3.30;;
3755;SDS011;1893;52.526;13.360;2023-02-28T12:49:19;2.83;;;2.43;;
3755;SDS011;1893;52.526;13.360;2023-02-28T12:51:50;5.70;;;2.87;;
3755;SDS011;1893;52.526;13.360;2023-02-28T13:00:01;3.00;;;2.70;;
3755;SDS011;1893;52.526;13.360;2023-02-28T13:13:24;4.50;;;2.87;;
3755;SDS011;1893;52.526;13.360;2023-02-28T13:18:53;2.80;;;2.17;;
3755;SDS011;1893;52.526;13.360;2023-02-28T13:21:41;5.53;;;3.00;;
3755;SDS011;1893;52.526;13.360;2023-02-28T13:24:09;7.93;;;3.40;;
3755;SDS011;1893;52.526;13.360;2023-02-28T13:42:36;3.70;;;2.50;;
3755;SDS011;1893;52.526;13.360;2023-02-28T13:45:29;3.60;;;2.67;;
3755;SDS011;1893;52.526;13.360;2023-02-28T13:47:56;3.63;;;2.47;;
3755;SDS011;1893;52.526;13.360;2023-02-28T14:06:32;5.80;;;2.73;;
3755;SDS011;1893;52.526;13.360;2023-02-28T14:11:37;4.10;;;2.97;;
3755;SDS011;1893;52.526;13.360;2023-02-28T14:14:04;4.20;;;2.43;;
3755;SDS011;1893;52.526;13.360;2023-02-28T14:16:50;3.93;;;2.60;;
3755;SDS011;1893;52.526;13.360;2023-02-28T14:33:26;4.53;;;2.50;;
3755;SDS011;1893;52.526;13.360;2023-02-28T14:36:00;2.47;;;2.27;;
3755;SDS011;1893;52.526;13.360;2023-02-28T14:38:33;4.83;;;2.90;;
3755;SDS011;1893;52.526;13.360;2023-02-28T14:41:28;4.63;;;2.57;;
3755;SDS011;1893;52.526;13.360;2023-02-28T14:44:13;3.83;;;3.10;;
3755;SDS011;1893;52.526;13.360;2023-02-28T14:46:48;3.10;;;2.57;;
3755;SDS011;1893;52.526;13.360;2023-02-28T14:49:24;5.10;;;2.80;;
3755;SDS011;1893;52.526;13.360;2023-02-28T14:52:01;8.20;;;2.33;;
3755;SDS011;1893;52.526;13.360;2023-02-28T14:54:34;5.83;;;2.57;;
3755;SDS011;1893;52.526;13.360;2023-02-28T14:57:01;4.10;;;2.10;;
3755;SDS011;1893;52.526;13.360;2023-02-28T14:59:29;3.83;;;2.37;;
3755;SDS011;1893;52.526;13.360;2023-02-28T15:04:54;3.23;;;2.50;;
3755;SDS011;1893;52.526;13.360;2023-02-28T15:07:43;7.07;;;2.80;;
3755;SDS011;1893;52.526;13.360;2023-02-28T15:12:44;4.10;;;2.73;;
3755;SDS011;1893;52.526;13.360;2023-02-28T15:15:17;3.50;;;2.20;;
3755;SDS011;1893;52.526;13.360;2023-02-28T15:17:46;5.93;;;2.60;;
3755;SDS011;1893;52.526;13.360;2023-02-28T15:20:15;4.17;;;2.97;;
3755;SDS011;1893;52.526;13.360;2023-02-28T15:22:41;2.87;;;2.47;;
3755;SDS011;1893;52.526;13.360;2023-02-28T15:25:09;3.90;;;2.30;;
3755;SDS011;1893;52.526;13.360;2023-02-28T15:27:42;4.60;;;2.50;;
3755;SDS011;1893;52.526;13.360;2023-02-28T15:30:14;5.40;;;2.67;;
3755;SDS011;1893;52.526;13.360;2023-02-28T15:33:01;5.10;;;3.53;;
3755;SDS011;1893;52.526;13.360;2023-02-28T15:35:47;6.63;;;4.20;;
3755;SDS011;1893;52.526;13.360;2023-02-28T15:40:43;4.37;;;2.67;;
3755;SDS011;1893;52.526;13.360;2023-02-28T15:48:18;2.30;;;1.90;;
3755;SDS011;1893;52.526;13.360;2023-02-28T15:50:46;3.50;;;3.20;;
3755;SDS011;1893;52.526;13.360;2023-02-28T15:53:15;6.00;;;2.10;;
3755;SDS011;1893;52.526;13.360;2023-02-28T15:55:43;4.83;;;2.53;;
3755;SDS011;1893;52.526;13.360;2023-02-28T15:58:10;4.60;;;2.50;;
3755;SDS011;1893;52.526;13.360;2023-02-28T16:00:38;4.63;;;2.53;;
3755;SDS011;1893;52.526;13.360;2023-02-28T16:03:23;7.10;;;2.87;;
3755;SDS011;1893;52.526;13.360;2023-02-28T16:08:56;6.67;;;2.43;;
3755;SDS011;1893;52.526;13.360;2023-02-28T16:11:22;3.50;;;2.07;;
3755;SDS011;1893;52.526;13.360;2023-02-28T16:13:48;4.90;;;3.07;;
3755;SDS011;1893;52.526;13.360;2023-02-28T16:16:18;5.03;;;2.93;;
3755;SDS011;1893;52.526;13.360;2023-02-28T16:18:46;6.40;;;2.90;;
3755;SDS011;1893;52.526;13.360;2023-02-28T16:21:11;4.40;;;2.67;;
3755;SDS011;1893;52.526;13.360;2023-02-28T16:23:37;4.20;;;2.47;;
3755;SDS011;1893;52.526;13.360;2023-02-28T16:26:03;4.80;;;3.07;;
3755;SDS011;1893;52.526;13.360;2023-02-28T16:28:30;5.33;;;2.93;;
3755;SDS011;1893;52.526;13.360;2023-02-28T16:30:59;4.07;;;2.57;;
3755;SDS011;1893;52.526;13.360;2023-02-28T16:33:27;4.03;;;3.10;;
3755;SDS011;1893;52.526;13.360;2023-02-28T16:35:57;4.20;;;2.50;;
3755;SDS011;1893;52.526;13.360;2023-02-28T16:38:23;7.60;;;2.60;;
3755;SDS011;1893;52.526;13.360;2023-02-28T16:40:50;4.60;;;2.50;;
3755;SDS011;1893;52.526;13.360;2023-02-28T16:43:17;4.50;;;2.87;;
3755;SDS011;1893;52.526;13.360;2023-02-28T16:45:47;5.00;;;3.33;;
3755;SDS011;1893;52.526;13.360;2023-02-28T16:48:13;4.73;;;3.40;;
3755;SDS011;1893;52.526;13.360;2023-02-28T16:50:40;4.50;;;2.90;;
3755;SDS011;1893;52.526;13.360;2023-02-28T16:53:07;6.03;;;2.93;;
3755;SDS011;1893;52.526;13.360;2023-02-28T16:55:32;6.40;;;3.77;;
3755;SDS011;1893;52.526;13.360;2023-02-28T16:58:00;5.93;;;3.30;;
3755;SDS011;1893;52.526;13.360;2023-02-28T17:00:27;5.60;;;3.37;;
3755;SDS011;1893;52.526;13.360;2023-02-28T17:02:54;6.90;;;3.40;;
3755;SDS011;1893;52.526;13.360;2023-02-28T17:05:21;5.17;;;3.03;;
3755;SDS011;1893;52.526;13.360;2023-02-28T17:07:47;5.50;;;3.17;;
3755;SDS011;1893;52.526;13.360;2023-02-28T17:10:21;4.60;;;2.60;;
3755;SDS011;1893;52.526;13.360;2023-02-28T17:12:49;6.53;;;3.07;;
3755;SDS011;1893;52.526;13.360;2023-02-28T17:15:16;7.17;;;2.90;;
3755;SDS011;1893;52.526;13.360;2023-02-28T17:17:43;3.80;;;2.87;;
3755;SDS011;1893;52.526;13.360;2023-02-28T17:20:11;7.13;;;3.13;;
3755;SDS011;1893;52.526;13.360;2023-02-28T17:22:38;5.10;;;3.40;;
3755;SDS011;1893;52.526;13.360;2023-02-28T17:25:04;5.93;;;3.00;;
3755;SDS011;1893;52.526;13.360;2023-02-28T17:27:30;4.53;;;2.63;;
3755;SDS011;1893;52.526;13.360;2023-02-28T17:29:56;3.03;;;2.73;;
3755;SDS011;1893;52.526;13.360;2023-02-28T17:32:21;17.80;;;9.77;;
3755;SDS011;1893;52.526;13.360;2023-02-28T17:34:47;6.73;;;3.53;;
3755;SDS011;1893;52.526;13.360;2023-02-28T17:37:12;6.30;;;3.87;;
3755;SDS011;1893;52.526;13.360;2023-02-28T17:39:38;6.00;;;3.97;;
3755;SDS011;1893;52.526;13.360;2023-02-28T17:42:04;5.47;;;3.37;;
3755;SDS011;1893;52.526;13.360;2023-02-28T17:44:29;6.27;;;3.33;;
3755;SDS011;1893;52.526;13.360;2023-02-28T17:46:55;7.23;;;3.80;;
3755;SDS011;1893;52.526;13.360;2023-02-28T17:49:21;4.50;;;2.50;;
3755;SDS011;1893;52.526;13.360;2023-02-28T17:51:47;5.23;;;4.10;;
3755;SDS011;1893;52.526;13.360;2023-02-28T17:54:14;4.63;;;2.70;;
3755;SDS011;1893;52.526;13.360;2023-02-28T17:56:39;4.83;;;3.53;;
3755;SDS011;1893;52.526;13.360;2023-02-28T17:59:08;10.10;;;3.97;;
3755;SDS011;1893;52.526;13.360;2023-02-28T18:01:34;4.70;;;3.47;;
3755;SDS011;1893;52.526;13.360;2023-02-28T18:04:00;5.70;;;3.43;;
3755;SDS011;1893;52.526;13.360;2023-02-28T18:06:27;5.30;;;3.47;;
3755;SDS011;1893;52.526;13.360;2023-02-28T18:08:58;9.90;;;3.63;;
3755;SDS011;1893;52.526;13.360;2023-02-28T18:11:24;5.90;;;2.70;;
3755;SDS011;1893;52.526;13.360;2023-02-28T18:13:51;8.20;;;4.20;;
3755;SDS011;1893;52.526;13.360;2023-02-28T18:16:19;6.90;;;3.80;;
3755;SDS011;1893;52.526;13.360;2023-02-28T18:18:46;6.63;;;3.83;;